Time;durP1;ratioP1;P1;durP2;ratioP2;P2;SDS_P1;SDS_P2;PMS_P1;PMS_P2;Temp;Humidity;BMP_temperature;BMP_pressure;BME280_temperature;BME280_humidity;BME280_pressure;Samples;Min_cycle;Max_cycle;Signal;HPM_P1;HPM_P2
2022/01/14 00:01:14;;;;;;;26.30;15.20;;;7.70;99.90;;;;;;5083178;28;20691;-73
2022/01/14 00:03:42;;;;;;;17.60;12.77;;;7.70;99.90;;;;;;5089642;28;20204;-73
2022/01/14 00:06:10;;;;;;;24.55;14.02;;;7.80;99.90;;;;;;5094639;28;20294;-74
2022/01/14 00:08:37;;;;;;;15.48;11.35;;;7.70;99.90;;;;;;5088497;28;20683;-73
2022/01/14 00:11:14;;;;;;;18.95;13.80;;;7.70;99.90;;;;;;5091631;28;20596;-73
2022/01/14 00:13:50;;;;;;;21.38;14.25;;;7.70;99.90;;;;;;5086537;28;20204;-73
2022/01/14 00:16:18;;;;;;;16.50;10.57;;;7.70;99.90;;;;;;5063425;28;20318;-73
2022/01/14 00:18:45;;;;;;;30.98;13.95;;;7.70;99.90;;;;;;5095146;28;20190;-73
2022/01/14 00:21:14;;;;;;;20.83;14.60;;;7.80;99.90;;;;;;5089487;28;20246;-73
2022/01/14 00:23:42;;;;;;;14.77;12.85;;;7.80;99.90;;;;;;5093559;28;20202;-72
2022/01/14 00:31:48;;;;;;;21.10;12.40;;;7.80;99.90;;;;;;5077825;28;20350;-71
2022/01/14 00:34:16;;;;;;;21.27;12.65;;;7.70;99.90;;;;;;5073381;28;20270;-72
2022/01/14 00:36:44;;;;;;;20.10;12.48;;;7.70;99.90;;;;;;5083932;28;20696;-74
2022/01/14 00:39:13;;;;;;;18.55;11.48;;;7.70;99.90;;;;;;5107435;28;20193;-73
2022/01/14 00:41:41;;;;;;;20.52;12.50;;;7.60;99.90;;;;;;5105201;28;20241;-73
2022/01/14 00:44:12;;;;;;;17.77;11.25;;;7.50;99.90;;;;;;5113732;28;20414;-74
2022/01/14 00:46:39;;;;;;;29.63;13.32;;;7.50;99.90;;;;;;5109340;28;20198;-72
2022/01/14 00:49:08;;;;;;;20.02;11.85;;;7.50;99.90;;;;;;5106892;28;20221;-72
2022/01/14 00:51:36;;;;;;;15.27;11.80;;;7.50;99.90;;;;;;5106294;28;20217;-74
2022/01/14 00:54:06;;;;;;;19.63;12.32;;;7.60;99.90;;;;;;5107115;28;20223;-73
2022/01/14 00:56:45;;;;;;;21.60;11.68;;;7.50;99.90;;;;;;5104852;28;20291;-73
2022/01/14 00:59:16;;;;;;;17.98;12.00;;;7.60;99.90;;;;;;5095447;28;20213;-73
2022/01/14 01:01:44;;;;;;;20.25;12.23;;;7.60;99.90;;;;;;5097951;28;20206;-73
2022/01/14 01:04:13;;;;;;;23.40;12.93;;;7.50;99.90;;;;;;5099539;28;20205;-73
2022/01/14 01:06:41;;;;;;;21.15;12.32;;;7.40;99.90;;;;;;5106080;28;20185;-73
2022/01/14 01:09:11;;;;;;;19.98;12.00;;;7.50;99.90;;;;;;5105866;28;20439;-73
2022/01/14 01:11:43;;;;;;;14.50;11.60;;;7.40;99.90;;;;;;5104329;28;20223;-72
2022/01/14 01:14:13;;;;;;;19.58;12.43;;;7.40;99.90;;;;;;5097949;28;20200;-73
2022/01/14 01:16:41;;;;;;;22.50;14.00;;;7.40;99.90;;;;;;5104941;28;20208;-73
2022/01/14 01:19:08;;;;;;;15.85;11.77;;;7.30;99.90;;;;;;5095430;28;20221;-73
2022/01/14 01:21:35;;;;;;;14.98;10.63;;;7.30;99.90;;;;;;5102057;28;20208;-73
2022/01/14 01:24:02;;;;;;;19.55;10.55;;;7.40;99.90;;;;;;5105558;28;20386;-73
2022/01/14 01:26:34;;;;;;;18.75;11.65;;;7.30;99.90;;;;;;5106125;28;20232;-73
2022/01/14 01:29:16;;;;;;;19.83;10.98;;;7.30;99.90;;;;;;5106425;28;20307;-73
2022/01/14 01:31:45;;;;;;;22.42;11.65;;;7.30;99.90;;;;;;5100369;28;20283;-73
2022/01/14 01:34:14;;;;;;;24.38;12.45;;;7.30;99.90;;;;;;5102979;28;20314;-73
2022/01/14 01:36:43;;;;;;;15.00;10.23;;;7.30;99.90;;;;;;5095690;28;20216;-74
2022/01/14 01:39:13;;;;;;;17.50;11.88;;;7.30;99.90;;;;;;5098502;28;20189;-73
2022/01/14 01:41:46;;;;;;;22.13;11.50;;;7.30;99.90;;;;;;5098895;28;20375;-74
2022/01/14 01:44:16;;;;;;;18.20;12.52;;;7.30;99.90;;;;;;5105433;28;20250;-73
2022/01/14 01:46:46;;;;;;;17.50;11.07;;;7.30;99.90;;;;;;5094931;28;20196;-73
2022/01/14 01:49:13;;;;;;;21.42;11.88;;;7.30;99.90;;;;;;5105008;28;20216;-73
2022/01/14 01:51:43;;;;;;;19.00;10.93;;;7.30;99.90;;;;;;5104287;28;20303;-73
2022/01/14 01:54:10;;;;;;;20.83;14.95;;;7.30;99.90;;;;;;5097877;28;20221;-72
2022/01/14 01:56:37;;;;;;;17.20;11.85;;;7.30;99.90;;;;;;5105859;28;20264;-73
2022/01/14 01:59:06;;;;;;;17.35;12.05;;;7.30;99.90;;;;;;5105409;28;20183;-73
2022/01/14 02:01:34;;;;;;;24.42;12.23;;;7.30;99.90;;;;;;5105095;28;20420;-72
2022/01/14 02:04:00;;;;;;;20.85;10.80;;;7.30;99.90;;;;;;5106145;28;20205;-72
2022/01/14 02:06:27;;;;;;;17.33;11.90;;;7.30;99.90;;;;;;5104552;28;20204;-73
2022/01/14 02:08:54;;;;;;;18.25;12.05;;;7.20;99.90;;;;;;5097983;28;20289;-73
2022/01/14 02:11:21;;;;;;;14.90;11.40;;;7.20;99.90;;;;;;5102234;28;20224;-72
2022/01/14 02:13:50;;;;;;;23.10;12.43;;;7.20;99.90;;;;;;5105865;28;20184;-72
2022/01/14 02:16:32;;;;;;;19.08;10.60;;;7.30;99.90;;;;;;5106034;28;20187;-73
2022/01/14 02:19:15;;;;;;;19.38;12.45;;;7.20;99.90;;;;;;5098745;28;20192;-72
2022/01/14 02:24:55;;;;;;;22.67;11.63;;;7.30;99.90;;;;;;5102052;28;20207;-72
2022/01/14 02:27:22;;;;;;;15.85;10.27;;;7.20;99.90;;;;;;5097718;28;20408;-72
2022/01/14 02:29:49;;;;;;;27.40;12.85;;;7.20;99.90;;;;;;5093645;28;20221;-72
2022/01/14 02:32:16;;;;;;;18.27;12.10;;;7.20;99.90;;;;;;5099089;28;20246;-72
2022/01/14 02:34:43;;;;;;;25.90;12.40;;;7.30;99.90;;;;;;5100771;28;20423;-72
2022/01/14 02:37:11;;;;;;;21.67;12.30;;;7.30;99.90;;;;;;5095172;28;20260;-73
2022/01/14 02:39:39;;;;;;;24.48;13.10;;;7.30;99.90;;;;;;5098822;28;20220;-73
2022/01/14 02:42:09;;;;;;;22.52;11.88;;;7.30;99.90;;;;;;5103439;28;20236;-74
2022/01/14 02:44:37;;;;;;;22.30;11.48;;;7.40;99.90;;;;;;5097978;28;20243;-73
2022/01/14 02:47:06;;;;;;;17.92;11.27;;;7.40;99.90;;;;;;5099491;28;20222;-73
2022/01/14 02:49:36;;;;;;;17.60;11.68;;;7.40;99.90;;;;;;5094360;28;20321;-73
2022/01/14 02:52:07;;;;;;;18.90;12.80;;;7.30;99.90;;;;;;5097214;28;20236;-73
2022/01/14 02:54:51;;;;;;;23.25;11.98;;;7.40;99.90;;;;;;5093459;28;20183;-72
2022/01/14 02:57:19;;;;;;;15.68;11.68;;;7.30;99.90;;;;;;5094347;28;20257;-73
2022/01/14 02:59:48;;;;;;;24.23;13.50;;;7.30;99.90;;;;;;5103374;28;20193;-72
2022/01/14 03:02:16;;;;;;;21.05;12.40;;;7.30;99.90;;;;;;5104290;28;20209;-73
2022/01/14 03:04:44;;;;;;;20.55;10.90;;;7.40;99.90;;;;;;5098579;28;20213;-72
2022/01/14 03:07:12;;;;;;;17.45;11.20;;;7.40;99.90;;;;;;5102892;28;20201;-72
2022/01/14 03:09:41;;;;;;;16.65;12.07;;;7.40;99.90;;;;;;5104888;28;20268;-72
2022/01/14 03:12:08;;;;;;;18.98;11.93;;;7.40;99.90;;;;;;5102487;28;20228;-72
2022/01/14 03:14:35;;;;;;;17.42;10.55;;;7.40;99.90;;;;;;5110752;28;20220;-73
2022/01/14 03:17:02;;;;;;;22.58;12.40;;;7.40;99.90;;;;;;5106758;28;20221;-73
2022/01/14 03:19:30;;;;;;;22.10;13.02;;;7.30;99.90;;;;;;5107140;28;20274;-73
2022/01/14 03:22:18;;;;;;;21.75;10.85;;;7.40;99.90;;;;;;5115762;28;20250;-72
2022/01/14 03:27:31;;;;;;;18.80;14.80;;;7.40;99.90;;;;;;5108802;28;20430;-72
2022/01/14 03:29:58;;;;;;;21.02;11.95;;;7.40;99.90;;;;;;5107910;28;20241;-72
2022/01/14 03:32:25;;;;;;;17.48;11.80;;;7.50;99.90;;;;;;5108841;28;20219;-73
2022/01/14 03:34:52;;;;;;;29.25;12.60;;;7.40;99.90;;;;;;5103273;28;20257;-72
2022/01/14 03:37:20;;;;;;;18.48;12.27;;;7.40;99.90;;;;;;5108208;28;20221;-73
2022/01/14 03:39:48;;;;;;;23.00;13.30;;;7.50;99.90;;;;;;5101035;28;20247;-72
2022/01/14 03:42:15;;;;;;;27.27;13.23;;;7.40;99.90;;;;;;5105495;28;20206;-72
2022/01/14 03:44:42;;;;;;;19.90;11.57;;;7.40;99.90;;;;;;5100482;28;20185;-72
2022/01/14 03:47:09;;;;;;;23.52;12.98;;;7.40;99.90;;;;;;5100653;28;20194;-72
2022/01/14 03:49:36;;;;;;;22.92;12.65;;;7.40;99.90;;;;;;5105524;28;20218;-72
2022/01/14 03:52:03;;;;;;;25.60;13.85;;;7.40;99.90;;;;;;5097938;28;20209;-72
2022/01/14 03:54:30;;;;;;;18.23;12.93;;;7.40;99.90;;;;;;5104102;28;20192;-72
2022/01/14 03:56:58;;;;;;;19.80;13.70;;;7.30;99.90;;;;;;5103016;28;20312;-73
2022/01/14 03:59:25;;;;;;;28.00;14.77;;;7.40;99.90;;;;;;5102370;28;20217;-73
2022/01/14 04:01:52;;;;;;;19.50;13.55;;;7.40;99.90;;;;;;5100336;28;20266;-73
2022/01/14 04:04:20;;;;;;;18.92;13.63;;;7.40;99.90;;;;;;5103149;28;20214;-73
2022/01/14 04:06:47;;;;;;;24.58;14.07;;;7.40;99.90;;;;;;5096990;28;20198;-73
2022/01/14 04:09:14;;;;;;;28.77;13.95;;;7.30;99.90;;;;;;5100441;28;20443;-72
2022/01/14 04:11:44;;;;;;;24.80;14.15;;;7.30;99.90;;;;;;5103275;28;20307;-73
2022/01/14 04:16:54;;;;;;;25.75;13.50;;;7.20;99.90;;;;;;5101992;28;20194;-74
2022/01/14 04:19:21;;;;;;;20.00;14.00;;;7.20;99.90;;;;;;5105443;28;20200;-72
2022/01/14 04:21:48;;;;;;;24.45;14.65;;;7.20;99.90;;;;;;5106134;28;20251;-72
2022/01/14 04:24:15;;;;;;;19.60;13.85;;;7.20;99.90;;;;;;5097241;28;20244;-72
2022/01/14 04:26:42;;;;;;;27.02;13.73;;;7.20;99.90;;;;;;5092777;28;20393;-74
2022/01/14 04:29:09;;;;;;;32.90;16.70;;;7.20;99.90;;;;;;5103251;28;20272;-71
2022/01/14 04:31:37;;;;;;;20.77;13.25;;;7.20;99.90;;;;;;5097642;28;20511;-72
2022/01/14 04:34:04;;;;;;;23.02;13.40;;;7.30;99.90;;;;;;5103077;28;20270;-72
2022/01/14 04:36:31;;;;;;;23.45;12.45;;;7.20;99.90;;;;;;5105760;28;20443;-72
2022/01/14 04:38:58;;;;;;;23.42;14.57;;;7.10;99.90;;;;;;5099467;28;20308;-72
2022/01/14 04:41:25;;;;;;;20.95;13.27;;;7.10;99.90;;;;;;5104297;28;20315;-72
2022/01/14 04:43:53;;;;;;;24.38;14.95;;;7.10;99.90;;;;;;5101949;28;20253;-72
2022/01/14 04:49:08;;;;;;;24.25;14.88;;;7.00;99.90;;;;;;5072416;28;20281;-72
2022/01/14 04:51:37;;;;;;;20.83;11.45;;;7.00;99.90;;;;;;5104304;28;20223;-72
2022/01/14 04:54:04;;;;;;;25.90;12.63;;;7.00;99.90;;;;;;5099437;28;20207;-72
2022/01/14 04:56:33;;;;;;;26.60;13.52;;;7.00;99.90;;;;;;5104057;28;20220;-72
2022/01/14 04:58:59;;;;;;;25.50;12.30;;;7.00;99.90;;;;;;5096249;28;20185;-72
2022/01/14 05:01:27;;;;;;;25.73;12.60;;;7.10;99.90;;;;;;5096923;28;20485;-73
2022/01/14 05:03:56;;;;;;;15.98;10.95;;;7.10;99.90;;;;;;5095709;28;20186;-73
2022/01/14 05:06:24;;;;;;;22.88;12.13;;;7.10;99.90;;;;;;5105402;28;20322;-72
2022/01/14 05:08:51;;;;;;;25.00;13.15;;;7.20;99.90;;;;;;5106416;28;20186;-72
2022/01/14 05:11:36;;;;;;;18.27;10.93;;;7.20;99.90;;;;;;5094821;28;20226;-72
2022/01/14 05:14:03;;;;;;;18.23;13.00;;;7.30;99.90;;;;;;5100581;28;20215;-72
2022/01/14 05:16:31;;;;;;;22.30;12.40;;;7.40;99.90;;;;;;5101096;28;20194;-72
2022/01/14 05:18:58;;;;;;;18.55;13.27;;;7.30;99.90;;;;;;5106106;28;20197;-73
2022/01/14 05:21:26;;;;;;;21.10;13.95;;;7.30;99.90;;;;;;5103420;28;20366;-72
2022/01/14 05:23:53;;;;;;;24.73;12.50;;;7.40;99.90;;;;;;5106663;28;20307;-72
2022/01/14 05:26:21;;;;;;;25.42;14.10;;;7.40;99.90;;;;;;5100531;28;20244;-73
2022/01/14 05:28:48;;;;;;;20.92;12.68;;;7.50;99.90;;;;;;5106075;28;20206;-72
2022/01/14 05:31:16;;;;;;;22.40;13.60;;;7.50;99.90;;;;;;5087114;28;20293;-73
2022/01/14 05:33:46;;;;;;;27.95;15.07;;;7.50;99.90;;;;;;5097680;28;20194;-73
2022/01/14 05:36:14;;;;;;;18.77;12.75;;;7.50;99.90;;;;;;5094227;28;20192;-73
2022/01/14 05:38:42;;;;;;;22.20;14.13;;;7.60;99.90;;;;;;5100741;28;20419;-73
2022/01/14 05:41:09;;;;;;;25.35;13.65;;;7.50;99.90;;;;;;5100742;28;20272;-73
2022/01/14 05:43:36;;;;;;;19.73;14.90;;;7.50;99.90;;;;;;5100786;28;20210;-73
2022/01/14 05:46:03;;;;;;;22.92;14.05;;;7.50;99.90;;;;;;5103028;28;20442;-72
2022/01/14 05:48:31;;;;;;;25.70;12.18;;;7.50;99.90;;;;;;5100344;28;20189;-72
2022/01/14 05:50:58;;;;;;;26.35;12.15;;;7.40;99.90;;;;;;5099626;28;20588;-72
2022/01/14 05:53:24;;;;;;;23.38;12.63;;;7.50;99.90;;;;;;5102811;28;20186;-71
2022/01/14 05:55:53;;;;;;;21.38;12.73;;;7.50;99.90;;;;;;5104286;28;20185;-73
2022/01/14 05:58:20;;;;;;;20.73;13.35;;;7.50;99.90;;;;;;5095610;28;20193;-72
2022/01/14 06:00:48;;;;;;;26.50;13.35;;;7.50;99.90;;;;;;5103953;28;20213;-73
2022/01/14 06:03:15;;;;;;;22.85;12.68;;;7.50;99.90;;;;;;5102893;28;20189;-72
2022/01/14 06:05:42;;;;;;;21.77;14.52;;;7.50;99.90;;;;;;5090144;28;20189;-72
2022/01/14 06:08:09;;;;;;;23.08;13.48;;;7.60;99.90;;;;;;5095201;28;20194;-72
2022/01/14 06:10:36;;;;;;;22.25;13.85;;;7.50;99.90;;;;;;5104303;28;20212;-73
2022/01/14 06:13:04;;;;;;;24.23;13.90;;;7.50;99.90;;;;;;5101558;28;20299;-73
2022/01/14 06:15:31;;;;;;;24.58;15.02;;;7.50;99.90;;;;;;5103900;28;20415;-73
2022/01/14 06:17:58;;;;;;;20.60;13.73;;;7.50;99.90;;;;;;5105557;28;20199;-72
2022/01/14 06:20:25;;;;;;;24.25;16.60;;;7.50;99.90;;;;;;5104815;28;20190;-73
2022/01/14 06:22:52;;;;;;;20.98;14.95;;;7.40;99.90;;;;;;5103379;28;20269;-73
2022/01/14 06:25:19;;;;;;;26.75;15.07;;;7.40;99.90;;;;;;5101361;28;20283;-73
2022/01/14 06:27:46;;;;;;;25.77;14.68;;;7.50;99.90;;;;;;5097666;28;20223;-73
2022/01/14 06:30:15;;;;;;;28.60;15.95;;;7.40;99.90;;;;;;5104459;28;20268;-73
2022/01/14 06:32:42;;;;;;;28.45;15.75;;;7.40;99.90;;;;;;5097825;28;20219;-72
2022/01/14 06:35:10;;;;;;;23.77;14.45;;;7.40;99.90;;;;;;5104144;28;20451;-72
2022/01/14 06:37:37;;;;;;;29.60;17.15;;;7.40;99.90;;;;;;5100715;28;20194;-72
2022/01/14 06:40:06;;;;;;;23.25;16.30;;;7.40;99.90;;;;;;5101630;28;20189;-73
2022/01/14 06:42:33;;;;;;;28.25;16.45;;;7.40;99.90;;;;;;5102616;28;20471;-73
2022/01/14 06:45:00;;;;;;;22.65;16.45;;;7.40;99.90;;;;;;5108095;28;20182;-72
2022/01/14 06:47:29;;;;;;;29.98;15.57;;;7.50;99.90;;;;;;5106132;28;20201;-72
2022/01/14 06:49:55;;;;;;;27.30;17.73;;;7.50;99.90;;;;;;5099344;28;20478;-74
2022/01/14 06:52:23;;;;;;;27.75;17.02;;;7.50;99.90;;;;;;5105305;28;20206;-72
2022/01/14 06:54:50;;;;;;;25.33;16.02;;;7.50;99.90;;;;;;5104642;28;20379;-74
2022/01/14 06:57:17;;;;;;;31.13;14.80;;;7.40;99.90;;;;;;5097631;28;20261;-73
2022/01/14 06:59:45;;;;;;;23.85;15.40;;;7.40;99.90;;;;;;5101260;28;20460;-73
2022/01/14 07:02:12;;;;;;;31.02;18.35;;;7.40;99.90;;;;;;5096302;28;20205;-72
2022/01/14 07:04:40;;;;;;;20.42;15.27;;;7.50;99.90;;;;;;5103075;28;20210;-73
2022/01/14 07:07:07;;;;;;;34.58;16.70;;;7.50;99.90;;;;;;5101846;28;20335;-73
2022/01/14 07:09:55;;;;;;;27.63;15.05;;;7.50;99.90;;;;;;5103557;28;20209;-73
2022/01/14 07:12:24;;;;;;;27.38;14.98;;;7.60;99.90;;;;;;5105559;28;20350;-72
2022/01/14 07:14:51;;;;;;;26.67;15.20;;;7.60;99.90;;;;;;5108716;28;20232;-73
2022/01/14 07:17:18;;;;;;;31.58;15.70;;;7.60;99.90;;;;;;5108976;28;20174;-71
2022/01/14 07:19:49;;;;;;;25.52;15.57;;;7.70;99.90;;;;;;5108299;28;20981;-73
2022/01/14 07:22:16;;;;;;;21.65;16.00;;;7.70;99.90;;;;;;5108980;28;20306;-71
2022/01/14 07:24:43;;;;;;;26.50;15.85;;;7.70;99.90;;;;;;5108842;28;20190;-72
2022/01/14 07:27:10;;;;;;;26.83;15.88;;;7.70;99.90;;;;;;5109011;28;20209;-71
2022/01/14 07:29:38;;;;;;;22.85;16.23;;;7.80;99.90;;;;;;5108446;28;20206;-72
2022/01/14 07:32:05;;;;;;;24.55;15.98;;;7.80;99.90;;;;;;5108524;28;20237;-70
2022/01/14 07:34:34;;;;;;;34.10;15.90;;;7.80;99.90;;;;;;5108596;27;20312;-70
2022/01/14 07:37:02;;;;;;;27.17;14.98;;;7.80;99.90;;;;;;5108021;28;20333;-72
2022/01/14 07:39:29;;;;;;;19.20;15.82;;;7.70;99.90;;;;;;5108288;28;20213;-73
2022/01/14 07:41:56;;;;;;;21.85;14.23;;;7.80;99.90;;;;;;5108108;28;20452;-72
2022/01/14 07:44:23;;;;;;;30.58;15.45;;;7.90;99.90;;;;;;5107517;28;20194;-73
2022/01/14 07:46:50;;;;;;;21.38;13.98;;;8.00;99.90;;;;;;5108210;28;20193;-72
2022/01/14 07:49:17;;;;;;;23.80;19.27;;;7.90;99.90;;;;;;5107603;28;20432;-72
2022/01/14 07:51:45;;;;;;;28.27;16.30;;;7.80;99.90;;;;;;5107165;28;20259;-73
2022/01/14 07:54:13;;;;;;;27.35;14.93;;;7.80;99.90;;;;;;5108309;28;20217;-72
2022/01/14 07:56:45;;;;;;;31.02;15.48;;;7.80;99.90;;;;;;5107765;28;20202;-69
2022/01/14 07:59:13;;;;;;;26.33;15.95;;;7.80;99.90;;;;;;5108084;28;20305;-73
2022/01/14 08:01:42;;;;;;;28.70;15.70;;;8.00;99.90;;;;;;5100513;28;20273;-72
2022/01/14 08:04:09;;;;;;;30.35;14.85;;;7.90;99.90;;;;;;5103077;28;20276;-72
2022/01/14 08:06:43;;;;;;;26.17;16.45;;;7.80;99.90;;;;;;5093462;28;20198;-74
2022/01/14 08:09:13;;;;;;;27.27;16.00;;;7.70;99.90;;;;;;5102895;28;20258;-72
2022/01/14 08:11:40;;;;;;;28.20;14.40;;;7.70;99.90;;;;;;5104402;28;20264;-74
2022/01/14 08:14:07;;;;;;;28.42;17.88;;;7.70;99.90;;;;;;5105886;28;20190;-71
2022/01/14 08:16:34;;;;;;;27.48;15.43;;;7.70;99.90;;;;;;5095792;28;20223;-72
2022/01/14 08:19:01;;;;;;;29.50;16.67;;;7.60;99.90;;;;;;5095624;28;20193;-72
2022/01/14 08:21:28;;;;;;;31.17;15.80;;;7.50;99.90;;;;;;5097811;28;20242;-71
2022/01/14 08:23:55;;;;;;;23.00;15.93;;;7.60;99.90;;;;;;5106882;28;20257;-72
2022/01/14 08:26:24;;;;;;;25.13;15.05;;;7.60;99.90;;;;;;5106420;28;20229;-72
2022/01/14 08:28:51;;;;;;;26.35;15.85;;;7.70;99.90;;;;;;5098766;28;20300;-72
2022/01/14 08:31:19;;;;;;;28.75;15.02;;;7.70;99.90;;;;;;5099421;28;20244;-72
2022/01/14 08:33:46;;;;;;;23.27;13.75;;;7.70;99.90;;;;;;5092090;28;20238;-72
2022/01/14 08:36:14;;;;;;;24.55;15.68;;;7.80;99.90;;;;;;5099457;28;20262;-71
2022/01/14 08:38:41;;;;;;;30.45;19.30;;;7.80;99.90;;;;;;5107346;28;20251;-71
2022/01/14 08:41:08;;;;;;;32.75;15.80;;;7.80;99.90;;;;;;5105799;28;20432;-70
2022/01/14 08:43:36;;;;;;;26.55;15.65;;;7.80;99.90;;;;;;5107490;28;20237;-71
2022/01/14 08:46:03;;;;;;;34.38;17.30;;;7.90;99.90;;;;;;5102311;28;20187;-70
2022/01/14 08:48:31;;;;;;;35.70;18.83;;;7.90;99.90;;;;;;5109159;28;20217;-71
2022/01/14 08:50:58;;;;;;;26.55;15.07;;;7.90;99.90;;;;;;5102380;28;20221;-71
2022/01/14 08:53:25;;;;;;;23.73;15.35;;;7.90;99.90;;;;;;5106916;28;20217;-71
2022/01/14 08:55:52;;;;;;;26.20;14.95;;;8.00;99.90;;;;;;5112482;28;20221;-70
2022/01/14 08:58:19;;;;;;;36.15;16.42;;;8.00;99.90;;;;;;5097612;28;20187;-71
2022/01/14 09:00:49;;;;;;;28.17;15.25;;;7.90;99.90;;;;;;5092543;28;20470;-71
2022/01/14 09:03:16;;;;;;;25.65;15.48;;;8.00;99.90;;;;;;5105772;28;20237;-70
2022/01/14 09:05:43;;;;;;;23.58;15.77;;;8.00;99.90;;;;;;5092047;28;20202;-71
2022/01/14 09:08:10;;;;;;;22.38;15.88;;;8.10;99.90;;;;;;5103297;28;20207;-72
2022/01/14 09:10:37;;;;;;;25.65;15.00;;;8.00;99.90;;;;;;5096422;28;20309;-71
2022/01/14 09:13:04;;;;;;;27.90;16.30;;;8.10;99.90;;;;;;5101989;28;20201;-71
2022/01/14 09:15:31;;;;;;;23.00;14.57;;;8.10;99.90;;;;;;5104230;28;20186;-72
2022/01/14 09:17:59;;;;;;;32.28;15.55;;;8.20;99.90;;;;;;5092527;28;20214;-72
2022/01/14 09:20:27;;;;;;;17.73;13.50;;;8.20;99.90;;;;;;5092701;28;20183;-73
2022/01/14 09:22:57;;;;;;;34.83;14.98;;;8.30;99.90;;;;;;5102667;28;20198;-70
2022/01/14 09:25:25;;;;;;;60.95;33.50;;;8.20;99.90;;;;;;5095924;28;20204;-73
2022/01/14 09:27:53;;;;;;;27.10;15.77;;;8.20;99.90;;;;;;5102010;28;20185;-73
2022/01/14 09:30:21;;;;;;;18.60;11.73;;;8.20;99.90;;;;;;5093995;28;20222;-71
2022/01/14 09:32:48;;;;;;;28.17;14.77;;;8.10;99.90;;;;;;5105226;28;20264;-69
2022/01/14 09:35:17;;;;;;;31.63;14.57;;;8.10;99.90;;;;;;5105160;28;20206;-71
2022/01/14 09:37:45;;;;;;;32.42;12.18;;;8.30;99.90;;;;;;5096952;28;20231;-72
2022/01/14 09:40:14;;;;;;;24.35;13.23;;;8.30;99.90;;;;;;5101560;28;20221;-71
2022/01/14 09:42:41;;;;;;;25.55;13.93;;;8.20;99.90;;;;;;5098766;28;20216;-71
2022/01/14 09:45:09;;;;;;;20.67;12.30;;;8.30;99.90;;;;;;5104622;28;20190;-72
2022/01/14 09:47:40;;;;;;;22.00;13.27;;;8.40;99.90;;;;;;5104808;28;20210;-72
2022/01/14 09:50:10;;;;;;;26.48;12.55;;;8.40;99.90;;;;;;5103808;28;20190;-72
2022/01/14 09:52:39;;;;;;;23.95;15.23;;;8.40;99.90;;;;;;5095346;28;20226;-74
2022/01/14 09:55:09;;;;;;;29.38;14.60;;;8.40;99.90;;;;;;5104563;28;20187;-72
2022/01/14 09:57:36;;;;;;;26.00;14.18;;;8.40;99.90;;;;;;5103964;28;20186;-72
2022/01/14 10:00:07;;;;;;;38.42;20.90;;;8.50;99.90;;;;;;5107339;28;20202;-72
2022/01/14 10:02:37;;;;;;;21.83;11.07;;;8.50;99.90;;;;;;5112785;28;20417;-73
2022/01/14 10:05:06;;;;;;;21.83;11.32;;;8.50;99.90;;;;;;5102834;28;20206;-73
2022/01/14 10:07:33;;;;;;;23.17;13.30;;;8.40;99.90;;;;;;5108415;28;20197;-73
2022/01/14 10:10:21;;;;;;;28.27;13.45;;;8.30;99.90;;;;;;5109278;28;20224;-72
2022/01/14 10:12:49;;;;;;;20.50;12.02;;;8.40;99.90;;;;;;5103327;28;20202;-73
2022/01/14 10:15:16;;;;;;;23.02;13.00;;;8.40;99.90;;;;;;5106583;28;20236;-73
2022/01/14 10:17:49;;;;;;;28.52;14.95;;;8.40;99.90;;;;;;5099503;28;20182;-72
2022/01/14 10:20:16;;;;;;;22.17;11.48;;;8.40;99.90;;;;;;5105576;28;20217;-72
2022/01/14 10:22:45;;;;;;;19.48;13.15;;;8.40;99.90;;;;;;5100118;28;20210;-71
2022/01/14 10:25:15;;;;;;;21.33;13.02;;;8.40;99.90;;;;;;5101869;28;20348;-73
2022/01/14 10:27:45;;;;;;;27.02;13.55;;;8.40;99.90;;;;;;5099974;28;20200;-72
2022/01/14 10:30:17;;;;;;;26.00;13.25;;;8.40;99.90;;;;;;5103597;28;20182;-73
2022/01/14 10:32:46;;;;;;;26.20;12.23;;;8.40;99.90;;;;;;5097725;28;20229;-72
2022/01/14 10:35:16;;;;;;;17.20;11.77;;;8.60;99.90;;;;;;5101030;28;20254;-72
2022/01/14 10:37:43;;;;;;;27.17;12.27;;;8.60;99.90;;;;;;5095441;28;20302;-72
2022/01/14 10:40:17;;;;;;;22.08;12.30;;;8.40;99.90;;;;;;5105454;28;20217;-72
2022/01/14 10:42:45;;;;;;;23.88;12.90;;;8.50;99.90;;;;;;5077184;28;20372;-73
2022/01/14 10:45:22;;;;;;;20.80;13.02;;;8.50;99.90;;;;;;5107585;28;20431;-73
2022/01/14 10:47:58;;;;;;;25.00;13.85;;;8.50;99.90;;;;;;5093455;28;20239;-73
2022/01/14 10:50:35;;;;;;;24.42;12.45;;;8.50;99.90;;;;;;5103733;28;20432;-73
2022/01/14 10:53:09;;;;;;;29.63;15.10;;;8.50;99.90;;;;;;5108473;28;20245;-74
2022/01/14 10:55:40;;;;;;;32.67;13.77;;;8.50;99.90;;;;;;5109008;28;20461;-72
2022/01/14 10:58:24;;;;;;;30.95;15.27;;;8.50;99.90;;;;;;5109339;28;20209;-72
2022/01/14 11:00:55;;;;;;;23.15;14.68;;;8.50;99.90;;;;;;5088826;28;20325;-72
2022/01/14 11:03:34;;;;;;;25.10;15.13;;;8.50;99.90;;;;;;5097306;28;20214;-74
2022/01/14 11:06:26;;;;;;;23.60;15.13;;;8.60;99.90;;;;;;5094060;28;20178;-72
2022/01/14 11:08:57;;;;;;;20.90;14.10;;;8.50;99.90;;;;;;5089240;28;20186;-73
2022/01/14 11:11:27;;;;;;;26.25;15.10;;;8.50;99.90;;;;;;5088767;28;20330;-72
2022/01/14 11:13:53;;;;;;;24.60;16.08;;;8.60;99.90;;;;;;5088657;28;20176;-72
2022/01/14 11:16:22;;;;;;;25.23;14.57;;;8.60;99.90;;;;;;5088364;28;20201;-72
2022/01/14 11:18:50;;;;;;;38.00;21.40;;;8.60;99.90;;;;;;5087134;28;20317;-72
2022/01/14 11:24:04;;;;;;;39.17;17.02;;;8.60;99.90;;;;;;5087634;28;20178;-72
2022/01/14 11:26:35;;;;;;;24.38;15.93;;;8.80;99.90;;;;;;5088086;28;20278;-72
2022/01/14 11:29:06;;;;;;;30.00;17.42;;;8.80;99.90;;;;;;5087465;28;20183;-72
2022/01/14 11:31:36;;;;;;;28.27;16.35;;;8.90;99.90;;;;;;5087458;28;20226;-74
2022/01/14 11:34:05;;;;;;;24.30;14.65;;;8.90;99.90;;;;;;5088304;28;20297;-71
2022/01/14 11:36:52;;;;;;;35.95;16.55;;;8.80;99.90;;;;;;5091623;28;20191;-73
2022/01/14 11:39:20;;;;;;;33.65;14.82;;;8.90;99.90;;;;;;5090151;28;20228;-72
2022/01/14 11:41:54;;;;;;;27.08;15.85;;;8.90;99.90;;;;;;5088659;28;20210;-73
2022/01/14 11:44:53;;;;;;;30.25;21.02;;;9.00;99.90;;;;;;5088449;28;20224;-71
2022/01/14 11:47:49;;;;;;;31.10;18.15;;;8.80;99.90;;;;;;5088499;28;20246;-73
2022/01/14 11:50:46;;;;;;;31.08;19.02;;;8.80;99.90;;;;;;5096087;28;20255;-73
2022/01/14 11:53:37;;;;;;;36.17;17.00;;;8.80;99.90;;;;;;5101519;28;20221;-73
2022/01/14 11:56:07;;;;;;;31.33;16.05;;;8.80;99.90;;;;;;5107903;28;20437;-72
2022/01/14 11:58:53;;;;;;;28.83;17.92;;;8.70;99.90;;;;;;5108452;28;20184;-73
2022/01/14 12:01:33;;;;;;;30.80;17.55;;;8.60;99.90;;;;;;5107182;28;20440;-73
2022/01/14 12:04:01;;;;;;;27.63;16.88;;;8.60;99.90;;;;;;5107883;28;20334;-72
2022/01/14 12:06:59;;;;;;;33.10;15.30;;;8.50;99.90;;;;;;5107742;28;20186;-71
2022/01/14 12:09:32;;;;;;;29.33;15.07;;;8.50;99.90;;;;;;5107805;28;20190;-73
2022/01/14 12:12:27;;;;;;;24.45;15.20;;;8.50;99.90;;;;;;5107256;28;20225;-72
2022/01/14 12:14:58;;;;;;;48.05;15.27;;;8.50;99.90;;;;;;5107957;28;20174;-73
2022/01/14 12:17:33;;;;;;;29.55;14.40;;;8.40;99.90;;;;;;5107540;28;20301;-73
2022/01/14 12:20:12;;;;;;;24.92;18.00;;;8.40;99.90;;;;;;5089574;28;20190;-73
2022/01/14 12:22:39;;;;;;;29.45;15.90;;;8.50;99.90;;;;;;5107260;28;20238;-73
2022/01/14 12:25:09;;;;;;;24.38;13.98;;;8.50;99.90;;;;;;5107480;28;20209;-72
2022/01/14 12:27:44;;;;;;;24.23;16.25;;;8.50;99.90;;;;;;5107642;28;20300;-73
2022/01/14 12:30:27;;;;;;;22.13;13.70;;;8.50;99.90;;;;;;5088777;28;20313;-72
2022/01/14 12:32:55;;;;;;;26.77;13.48;;;8.60;99.90;;;;;;5107078;28;20235;-72
2022/01/14 12:35:35;;;;;;;27.27;14.57;;;8.60;99.90;;;;;;5108096;27;20202;-72
2022/01/14 12:38:04;;;;;;;23.67;12.43;;;8.70;99.90;;;;;;5108325;27;20329;-73
2022/01/14 12:40:40;;;;;;;32.40;14.10;;;8.80;99.90;;;;;;5107395;28;20399;-73
2022/01/14 12:43:14;;;;;;;24.70;14.30;;;8.80;99.90;;;;;;5107951;28;20204;-72
2022/01/14 12:48:46;;;;;;;20.75;13.60;;;8.80;99.90;;;;;;5099991;28;20186;-72
2022/01/14 12:51:15;;;;;;;27.30;16.40;;;8.80;99.90;;;;;;5105882;28;20206;-73
2022/01/14 12:53:50;;;;;;;28.23;16.25;;;8.80;99.90;;;;;;5106737;28;20198;-74
2022/01/14 12:56:19;;;;;;;26.65;13.15;;;8.80;99.90;;;;;;5107584;28;20197;-74
2022/01/14 12:58:54;;;;;;;27.40;14.50;;;8.80;99.90;;;;;;5099165;28;20241;-72
2022/01/14 13:01:28;;;;;;;18.85;12.55;;;8.80;99.90;;;;;;5106099;28;20218;-72
2022/01/14 13:03:57;;;;;;;23.65;13.48;;;8.70;99.90;;;;;;5088025;28;20198;-74
2022/01/14 13:06:24;;;;;;;27.20;14.90;;;8.80;99.90;;;;;;5098377;28;20176;-72
2022/01/14 13:08:56;;;;;;;23.25;13.80;;;8.90;99.90;;;;;;5107058;28;20239;-73
2022/01/14 13:11:25;;;;;;;33.80;14.55;;;8.80;99.90;;;;;;5105973;28;20281;-72